KTOR/TOR METAR and TAF weather

Enter ICAO airport designator
Station Type Date Time Source
KTOR METAR 2022/01/26 20:53 UTC NOAA

KTOR 262053Z AUTO 29011G19KT 10SM CLR 06/M10 A2994 RMK AO2 SLP169 T00561100 56012


Station Type Date Time Source
KTOR Decoded METAR 2022/01/26 20:53 UTC NOAA

TORRINGTON MUNICIPAL AIRPORT, WY, United States (KTOR) 42-03N 104-09W 1277M
Jan 26, 2022 - 03:53 PM EST / 2022.01.26 2053 UTC
Wind: from the WNW (290 degrees) at 13 MPH (11 KT) gusting to 22 MPH (19 KT):0
Visibility: 10 mile(s):0
Sky conditions: clear
Temperature: 42.1 F (5.6 C)
Dew Point: 14.0 F (-10.0 C)
Relative Humidity: 31%
Pressure (altimeter): 29.94 in. Hg (1013 hPa)
Pressure tendency: 0.04 inches (1.2 hPa) lower than three hours ago
ob: KTOR 262053Z AUTO 29011G19KT 10SM CLR 06/M10 A2994 RMK AO2 SLP169 T00561100 56012
cycle: 21

Station Type Date Time Source
KTOR TAF UTC NOAA

Error!

Example: see airport list